createdAt,value
2019-05-25T00:03:35.645Z,99190.06
2019-05-25T00:09:40.316Z,99175.08
2019-05-25T00:15:44.954Z,99176.66
2019-05-25T00:21:49.878Z,99193.57
2019-05-25T00:27:54.440Z,99197.09
2019-05-25T00:33:59.083Z,99196.33
2019-05-25T00:40:05.634Z,99193.98
2019-05-25T00:46:10.183Z,99188.70
2019-05-25T00:52:14.743Z,99194.44
2019-05-25T00:58:19.308Z,99194.41
2019-05-25T01:04:23.871Z,99192.41
2019-05-25T01:10:28.670Z,99195.03
2019-05-25T01:16:33.241Z,99192.69
2019-05-25T01:22:37.805Z,99199.00
2019-05-25T01:28:42.358Z,99202.88
2019-05-25T01:34:46.925Z,99203.52
2019-05-25T01:40:51.731Z,99200.13
2019-05-25T01:46:56.304Z,99201.77
2019-05-25T01:53:00.857Z,99205.80
2019-05-25T01:59:05.495Z,99206.31
2019-05-25T02:05:10.465Z,99210.03
2019-05-25T02:11:15.033Z,99221.30
2019-05-25T02:17:19.670Z,99223.78
2019-05-25T02:23:24.229Z,99219.12
2019-05-25T02:29:28.805Z,99216.42
2019-05-25T02:35:33.352Z,99226.15
2019-05-25T02:41:38.290Z,99224.81
2019-05-25T02:47:42.866Z,99226.77
2019-05-25T02:53:47.494Z,99227.38
2019-05-25T02:59:52.068Z,99231.80
2019-05-25T03:05:57.990Z,99241.34
2019-05-25T03:12:02.618Z,99233.72
2019-05-25T03:18:07.227Z,99233.59
2019-05-25T03:24:11.844Z,99236.22
2019-05-25T03:30:18.261Z,99242.77
2019-05-25T03:36:22.840Z,99240.28
2019-05-25T03:42:27.407Z,99248.28
2019-05-25T03:48:31.962Z,99252.62
2019-05-25T03:54:36.541Z,99261.05
2019-05-25T04:00:41.358Z,99269.00
2019-05-25T04:06:45.987Z,99267.20
2019-05-25T04:12:50.579Z,99276.16
2019-05-25T04:18:55.152Z,99278.38
2019-05-25T04:24:59.706Z,99280.88
2019-05-25T04:31:04.548Z,99285.70
2019-05-25T04:37:09.110Z,99288.09
2019-05-25T04:43:13.679Z,99299.91
2019-05-25T04:49:18.309Z,99303.83
2019-05-25T04:55:22.896Z,99300.30
2019-05-25T05:01:27.472Z,99301.25
2019-05-25T05:07:32.027Z,99308.22
2019-05-25T05:13:36.712Z,99307.87
2019-05-25T05:19:41.278Z,99312.02
2019-05-25T05:25:45.922Z,99313.26
2019-05-25T05:31:50.627Z,99318.05
2019-05-25T05:37:55.527Z,99324.13
2019-05-25T05:44:01.598Z,99325.66
2019-05-25T05:50:10.764Z,99326.26
2019-05-25T05:56:15.428Z,99334.61
2019-05-25T06:02:20.059Z,99345.87
2019-05-25T06:08:24.631Z,99349.78
2019-05-25T06:14:29.216Z,99354.48
2019-05-25T06:20:33.845Z,99356.33
2019-05-25T06:26:38.419Z,99368.08
2019-05-25T06:32:43.145Z,99372.84
2019-05-25T06:38:47.827Z,99384.45
2019-05-25T06:44:52.403Z,99382.27
2019-05-25T06:50:56.975Z,99379.37
2019-05-25T06:57:01.543Z,99391.73
2019-05-25T07:03:06.162Z,99399.35
2019-05-25T07:09:10.799Z,99406.73
2019-05-25T07:15:15.795Z,99395.84
2019-05-25T07:21:20.421Z,99402.05
2019-05-25T07:27:25.057Z,99409.33
2019-05-25T07:33:29.680Z,99401.84
2019-05-25T07:39:34.240Z,99405.52
2019-05-25T07:45:38.814Z,99407.03
2019-05-25T07:51:43.370Z,99397.11
2019-05-25T07:57:48.002Z,99397.17
2019-05-25T08:03:52.639Z,99397.51
2019-05-25T08:09:57.226Z,99400.42
2019-05-25T08:16:01.796Z,99404.94
2019-05-25T08:22:06.515Z,99408.98
2019-05-25T08:28:11.090Z,99408.84
2019-05-25T08:34:16.468Z,99411.84
2019-05-25T08:40:21.189Z,99420.70
2019-05-25T08:46:25.763Z,99418.47
2019-05-25T08:52:30.311Z,99427.09
2019-05-25T08:58:47.586Z,99427.42
2019-05-25T09:04:41.221Z,99437.22
2019-05-25T09:10:45.809Z,99439.06
2019-05-25T09:16:50.430Z,99439.98
2019-05-25T09:22:54.996Z,99441.19
2019-05-25T09:29:04.494Z,99450.28
2019-05-25T09:35:09.417Z,99446.95
2019-05-25T09:41:14.014Z,99450.61
2019-05-25T09:47:18.578Z,99462.99
2019-05-25T09:53:23.140Z,99455.58
2019-05-25T09:59:27.698Z,99460.06
2019-05-25T10:05:32.349Z,99454.95
2019-05-25T10:11:36.976Z,99461.27
2019-05-25T10:17:41.547Z,99461.15
2019-05-25T10:23:46.092Z,99466.55
2019-05-25T10:29:50.729Z,99474.16
2019-05-25T10:35:55.285Z,99467.10
2019-05-25T10:41:59.845Z,99465.08
2019-05-25T10:48:04.604Z,99469.38
2019-05-25T10:54:09.260Z,99467.86
2019-05-25T11:00:14.632Z,99464.27
2019-05-25T11:06:19.198Z,99462.68
2019-05-25T11:12:25.999Z,99457.16
2019-05-25T11:18:30.040Z,99455.12
2019-05-25T11:24:34.684Z,99462.89
2019-05-25T11:30:39.245Z,99459.87
2019-05-25T11:36:43.816Z,99453.42
2019-05-25T11:42:48.531Z,99448.00
2019-05-25T11:48:53.133Z,99449.05
2019-05-25T11:54:57.690Z,99444.47
2019-05-25T12:01:02.365Z,99439.27
2019-05-25T12:07:07.150Z,99435.73
2019-05-25T12:13:11.722Z,99442.70
2019-05-25T12:19:16.362Z,99441.73
2019-05-25T12:25:21.181Z,99431.14
2019-05-25T12:31:25.741Z,99430.31
2019-05-25T12:37:30.301Z,99426.36
2019-05-25T12:43:34.920Z,99415.34
2019-05-25T12:49:49.985Z,99420.75
2019-05-25T12:55:45.769Z,99424.51
2019-05-25T13:01:50.328Z,99415.00
2019-05-25T13:07:55.021Z,99418.90
2019-05-25T13:14:13.672Z,99409.42
2019-05-25T13:20:07.976Z,99405.42
2019-05-25T13:26:12.618Z,99407.67
2019-05-25T13:32:17.176Z,99407.95
2019-05-25T13:38:21.765Z,99405.10
2019-05-25T13:44:26.356Z,99405.46
2019-05-25T13:50:30.914Z,99400.68
2019-05-25T13:56:35.489Z,99398.87
2019-05-25T14:02:40.134Z,99392.67
2019-05-25T14:08:44.682Z,99389.63
2019-05-25T14:14:49.415Z,99397.42
2019-05-25T14:20:53.979Z,99399.48
2019-05-25T14:26:58.535Z,99396.94
2019-05-25T14:33:03.696Z,99388.98
2019-05-25T14:39:11.505Z,99386.16
2019-05-25T14:45:16.710Z,99375.90
2019-05-25T14:51:21.288Z,99377.58
2019-05-25T14:57:26.004Z,99387.54
2019-05-25T15:03:30.707Z,99384.70
2019-05-25T15:09:35.267Z,99376.91
2019-05-25T15:15:39.831Z,99378.91
2019-05-25T15:21:44.618Z,99373.42
2019-05-25T15:27:49.827Z,99373.26
2019-05-25T15:33:54.386Z,99362.20
2019-05-25T15:39:58.955Z,99362.94
2019-05-25T15:46:03.672Z,99369.32
2019-05-25T15:52:08.464Z,99364.98
2019-05-25T15:58:13.034Z,99362.52
2019-05-25T16:04:17.736Z,99364.53
2019-05-25T16:10:22.362Z,99352.51
2019-05-25T16:16:30.087Z,99353.74
2019-05-25T16:22:33.401Z,99360.63
2019-05-25T16:28:38.019Z,99355.64
2019-05-25T16:34:42.599Z,99349.60
2019-05-25T16:40:47.157Z,99357.88
2019-05-25T16:46:51.864Z,99356.50
2019-05-25T16:52:56.579Z,99357.75
2019-05-25T16:59:01.149Z,99358.52
2019-05-25T17:05:07.016Z,99359.95
2019-05-25T17:11:11.581Z,99366.91
2019-05-25T17:17:16.152Z,99370.99
2019-05-25T17:23:20.732Z,99373.77
2019-05-25T17:29:25.308Z,99367.16
2019-05-25T17:35:29.860Z,99366.67
2019-05-25T17:41:34.429Z,99358.63
2019-05-25T17:47:39.005Z,99362.25
2019-05-25T17:53:43.663Z,99355.97
2019-05-25T17:59:48.260Z,99358.29
2019-05-25T18:05:52.872Z,99366.84
2019-05-25T18:11:57.495Z,99364.72
2019-05-25T18:18:02.068Z,99362.77
2019-05-25T18:24:06.766Z,99364.44
2019-05-25T18:30:12.742Z,99370.73
2019-05-25T18:36:17.405Z,99369.44
2019-05-25T18:42:22.345Z,99369.67
2019-05-25T18:48:26.905Z,99370.52
2019-05-25T18:54:31.492Z,99375.67
2019-05-25T19:00:36.118Z,99379.56
2019-05-25T19:06:41.039Z,99384.27
2019-05-25T19:12:45.597Z,99388.50
2019-05-25T19:18:50.229Z,99380.92
2019-05-25T19:24:54.814Z,99388.64
2019-05-25T19:30:59.378Z,99400.50
2019-05-25T19:37:04.074Z,99411.77
2019-05-25T19:43:08.699Z,99420.96
2019-05-25T19:49:13.273Z,99423.28
2019-05-25T19:55:17.904Z,99421.08
2019-05-25T20:01:22.539Z,99430.06
2019-05-25T20:07:27.100Z,99433.69
2019-05-25T20:13:31.680Z,99438.14
2019-05-25T20:19:36.256Z,99433.11
2019-05-25T20:25:40.900Z,99439.21
2019-05-25T20:31:45.460Z,99443.45
2019-05-25T20:37:50.167Z,99436.55
2019-05-25T20:43:54.754Z,99441.53
2019-05-25T20:49:59.415Z,99434.27
2019-05-25T20:56:04.044Z,99429.80
2019-05-25T21:02:08.600Z,99428.58
2019-05-25T21:08:13.210Z,99421.91
2019-05-25T21:14:17.868Z,99421.59
2019-05-25T21:20:22.496Z,99414.77
2019-05-25T21:26:27.134Z,99417.52
2019-05-25T21:32:31.720Z,99421.13
2019-05-25T21:38:36.266Z,99414.69
2019-05-25T21:44:40.836Z,99417.75
2019-05-25T21:50:45.533Z,99416.36
2019-05-25T21:56:50.267Z,99416.92
2019-05-25T22:02:55.025Z,99424.09
2019-05-25T22:08:59.677Z,99420.05
2019-05-25T22:15:12.319Z,99408.74
2019-05-25T22:21:16.863Z,99407.38
2019-05-25T22:27:21.414Z,99405.12
2019-05-25T22:33:26.006Z,99398.39
2019-05-25T22:39:30.596Z,99401.75
2019-05-25T22:45:35.213Z,99398.94
2019-05-25T22:51:39.766Z,99395.25
2019-05-25T22:57:44.341Z,99390.47
2019-05-25T23:03:48.946Z,99393.73
2019-05-25T23:09:53.489Z,99394.36
2019-05-25T23:15:58.050Z,99392.14
2019-05-25T23:22:02.697Z,99388.96
2019-05-25T23:28:07.300Z,99381.05
2019-05-25T23:34:11.871Z,99378.04
2019-05-25T23:40:17.359Z,99365.59
2019-05-25T23:46:21.985Z,99369.30
2019-05-25T23:52:26.623Z,99373.19
2019-05-25T23:58:31.200Z,99364.97
